Nektarios Artymatas

Recruteur - Omonoia
22 Oct 2028
Dimanche
Processus

Personnalité

Adaptabilité (18) Ambition (3) Controverse (1) Loyauté (9) Pression (2) Professionnalisme (13) Sportivité (6) Tempérament (15)

Profil

Style d'entraînement Démocratique
Diplôme Continental A
Détermination 12
Gestion des joueurs 11
Motivation 10
Discipline 8
Satisfaction professionnelle
100%
Fatigue
0%
Rôle Recruteur
Salaire 52.4K p/s
Contrat 14.03.2029

Performance

Comportement Bon
Efficacité de l'entraînement
40%
Développement des joueurs
60%
Prévention des blessures
45%
Mise en place tactique
40%

Événements récents

A évalué un joueur maintenant
A participé à une réunion de recrutement maintenant
A évalué un joueur maintenant
A évalué un joueur maintenant
A évalué un joueur maintenant
A observé un match maintenant
A observé un match 7j
A évalué un joueur 7j

Suivi en cours

368
Joueur Club Statut Capacité Confiance Observé Dernière observation Dernier vote
Leonardo Sosa Rosario Central Actif 99 / 107 40% 9 21.10.2028 -
Sam Proctor Salford City Actif 121 / 127 40% 20 21.10.2028 -
Yurdy Ramos Real Santander Actif 82 / 95 40% 5 21.10.2028 -
Joseph Cowan Sunderland Actif 100 / 108 40% 3 19.10.2028 -
Noé Poillion Stade Brestois Actif 96 / 107 40% 1 19.10.2028 -
Saúl Durán Gornik Zabrze Actif 91 / 99 40% 1 19.10.2028 -
Finley Grigg Manchester City Actif 107 / 119 40% 2 18.10.2028 -
Arseny Osadchiy Krylya Sovetov Actif 88 / 81 40% 1 18.10.2028 -
Miguel Gouveia Girona Actif 118 / 122 40% 1 18.10.2028 -
Dylan Moody Cheltenham Town Actif 119 / 138 40% 10 17.10.2028 -
Andrey Tsitsilin Baltika Actif 86 / 93 40% 2 17.10.2028 -
Hudson Sands Chelsea Actif 92 / 108 40% 3 17.10.2028 -
Robert Cook Accrington Stanley Actif 120 / 126 40% 15 16.10.2028 -
Thiago Parga Huracán Actif 94 / 111 40% 4 16.10.2028 -
Matteo Farronato Inter Actif 96 / 112 40% 1 16.10.2028 -
Ezequiel Zapata Rosario Central Actif 84 / 101 40% 2 15.10.2028 -
Nicholas Michalski Northampton Town Actif 111 / 115 40% 5 15.10.2028 -
Francisco Valdés Universidad Catolica Actif 92 / 102 40% 1 12.10.2028 -
Lautaro Vera Platense Actif 103 / 110 40% 3 11.10.2028 -
Vito Rosané IFK Goteborg Actif 102 / 97 40% 2 11.10.2028 -
Francesco Cereser Ospitaletto Actif 112 / 108 40% 1 11.10.2028 -
Máximo Casalnuovo Morón Actif 90 / 100 40% 2 10.10.2028 -
Vladislav Drozd Isloch Actif 89 / 88 40% 1 10.10.2028 -
Fred Heath Manchester United Actif 86 / 91 40% 1 10.10.2028 -
Lionel Madriaga Belgrano Actif 97 / 102 40% 3 06.10.2028 -
Iván Díaz Millonarios Actif 92 / 92 40% 2 06.10.2028 -
Agustín Reynoso Boca Juniors Actif 99 / 104 40% 1 06.10.2028 -
Farren Doran Tottenham Actif 94 / 112 40% 5 03.10.2028 -
Alessandro Nunziante Mantova Actif 122 / 139 40% 3 03.10.2028 -
Álvaro Busso Vélez Actif 108 / 121 40% 11 01.10.2028 -
Iason Georgakopoulos Giresunspor Actif 105 / 108 40% 1 01.10.2028 -
Renato Ardissono San Lorenzo Actif 99 / 103 40% 3 29.09.2028 -
Kabangu Alex Teixeira Le Havre AC Actif 114 / 124 40% 3 29.09.2028 -
José Quevedo Tigres Actif 92 / 91 40% 3 28.09.2028 -
Diego Di Salvatore AS Roma Actif 95 / 108 40% 1 28.09.2028 -
Nahuel Scarpino Ferro Carril Oeste Actif 80 / 93 40% 1 28.09.2028 -
Salaheddine Benyachou Doxa Actif 113 / 113 42% 1 / 1m 27.09.2028 -
Yerson Chacón AE Kition Actif 133 / 133 42% 1 / 1m 27.09.2028 -
Blake Irow Tottenham Actif 101 / 112 40% 5 25.09.2028 -
Alexander Zenti Giana Erminio Actif 114 / 120 40% 1 25.09.2028 -
Alfonso Álvarez Ferro Carril Oeste Actif 93 / 98 40% 4 23.09.2028 -
Dylan Martínez River Plate Actif 97 / 107 40% 4 21.09.2028 -
Enzo Romero Defensa y Justicia Actif 97 / 94 40% 2 21.09.2028 -
Almustapha Kabiru Plateau United Actif 96 / 86 40% 2 20.09.2028 -
Callan McKenna Derby County Actif 110 / 121 40% 1 20.09.2028 -
Domnan Panse Plateau United Actif 93 / 97 40% 4 19.09.2028 -
Gabriel Maureira Colo-Colo Actif 100 / 102 40% 1 19.09.2028 -
Damian Čech Fulham Actif 79 / 101 40% 2 18.09.2028 -
Valentín Perroud Boca Juniors Actif 90 / 99 40% 1 18.09.2028 -
Walter Molina Defensa y Justicia Actif 85 / 97 40% 4 17.09.2028 -
Ramiro Buratti River Plate Actif 102 / 109 40% 3 16.09.2028 -
Joel Abregu Temperley Actif 97 / 99 40% 2 15.09.2028 -
Oisin Cooney Burnley Actif 92 / 93 40% 1 15.09.2028 -
Zac Smith Nottingham Forest Actif 95 / 96 40% 1 14.09.2028 -
Raúl Duran Real Madrid Actif 89 / 110 40% 2 11.09.2028 -
David Mojica Union Magdalena Actif 92 / 93 40% 1 11.09.2028 -
Jack Allan Aston Villa Actif 101 / 98 40% 2 10.09.2028 -
Alastair Graham Nottingham Forest Actif 108 / 112 40% 3 08.09.2028 -
Owen Grainger Nottingham Forest Actif 80 / 88 40% 1 08.09.2028 -
Thiago Nahuel Independiente Actif 93 / 101 40% 5 07.09.2028 -
Ryan Pepi DC United Actif 72 / 93 40% 1 07.09.2028 -
Fabián Cristaldo Defensor Sporting Actif 101 / 103 40% 1 06.09.2028 -
Lucas Escalante San Diego Football Club Actif 95 / 83 40% 1 06.09.2028 -
Antonio Iglesias Sevilla Actif 102 / 103 40% 1 06.09.2028 -
Luca Campagnaro Colón Actif 89 / 99 40% 4 04.09.2028 -
Dante Blanco Lanús Actif 98 / 106 40% 1 04.09.2028 -
Stavros Psyropoulos Kasimpasa Actif 80 / 91 40% 1 04.09.2028 -
Andreas Stafylidis Asteras Actif 94 / 109 40% 2 03.09.2028 -
Mauro Matorras Central Norte Actif 95 / 101 40% 2 03.09.2028 -
Valentín Gradín Al-Ettifaq Actif 100 / 97 40% 1 03.09.2028 -
Tiago Gordillo San Miguel Actif 90 / 97 40% 11 02.09.2028 -
Máximo Munarriz San Telmo Actif 103 / 111 40% 5 02.09.2028 -
Tiago Cobo Morón Actif 79 / 87 40% 2 02.09.2028 -
Benito Paklayan Alvarado Actif 89 / 92 40% 2 01.09.2028 -
Santiago Moreira Quilmes Actif 80 / 88 40% 1 01.09.2028 -
Lucas Silva River Plate Actif 111 / 112 40% 1 01.09.2028 -
Agustín Medina Lanús Actif 113 / 126 40% 3 31.08.2028 -
Joaquín Salas Reading Actif 86 / 114 40% 1 31.08.2028 -
Jack Austin Chelsea Actif 108 / 113 40% 3 29.08.2028 -
Ivan Borges Defensores Actif 79 / 87 40% 2 29.08.2028 -
Felipe Obradovich Ferro Carril Oeste Actif 102 / 116 40% 1 29.08.2028 -
Yolvis Humanes Union Magdalena Actif 86 / 93 40% 2 28.08.2028 -
David Medina Atlético Madrid Actif 105 / 110 40% 1 28.08.2028 -
Quincy De Roon PSV Actif 88 / 97 40% 1 26.08.2028 -
Pavlos Tsiotas Zurich Actif 77 / 91 40% 1 26.08.2028 -
Andrey Ivlev Nizhniy Novgorod Actif 123 / 114 40% 6 25.08.2028 -
Román Colo All Boys Actif 84 / 101 40% 2 25.08.2028 -
Jan Cedilnik Chikhura Actif 80 / 95 40% 5 25.08.2028 -
Dylan Thompson Tottenham Actif 101 / 94 40% 2 25.08.2028 -
Sebastiano Nava Juventus Actif 104 / 116 40% 1 25.08.2028 -
Riquelme Thompson-Jones Accrington Stanley Actif 111 / 113 40% 9 24.08.2028 -
Tobías Ramírez River Plate Actif 137 / 134 40% 9 24.08.2028 -
Anderson Acevedo Bogota Actif 93 / 95 40% 1 24.08.2028 -
Vasilis Karkatsalis Rayo Vallecano Actif 90 / 102 40% 6 22.08.2028 -
Mateo Faure BATE Actif 84 / 101 40% 6 21.08.2028 -
Calvin Diakite Chesterfield Actif 93 / 97 40% 1 21.08.2028 -
Marcos López Banfield Actif 103 / 99 40% 1 21.08.2028 -
Amar Milisic Vitoria Guimaraes Actif 83 / 103 40% 1 20.08.2028 -
Estanislao López Colón Actif 92 / 101 40% 3 19.08.2028 -
Matías Satas Grimsby Town Actif 96 / 119 40% 1 19.08.2028 -
Federico Matarán Giana Erminio Actif 95 / 121 40% 4 18.08.2028 -
Alfie Cresswell Leeds United Actif 109 / 112 40% 1 18.08.2028 -
Duje Slatina Trapani Actif 89 / 93 40% 2 17.08.2028 -
Thiago Salinas Argentinos Juniors Actif 94 / 102 40% 1 17.08.2028 -
Nicolás Monges Sarmiento Actif 99 / 104 40% 1 17.08.2028 -
Claudio Lopez MSK Zilina Actif 89 / 96 40% 1 17.08.2028 -
Joaquín Ravasio Talleres Actif 83 / 93 40% 1 17.08.2028 -
Fabio Rispoli Como Actif 113 / 130 40% 3 15.08.2028 -
Samuel Córdoba Depor Actif 92 / 95 40% 2 15.08.2028 -
Mateo Ferrari Atlanta Actif 92 / 97 40% 1 14.08.2028 -
Óscar Surmay Union Magdalena Actif 78 / 89 40% 1 14.08.2028 -
Simón Escobar Vélez Actif 92 / 111 40% 1 13.08.2028 -
Agustín Martínez Cádiz Actif 104 / 114 40% 6 12.08.2028 -
Tomás Báez Boca Juniors Actif 93 / 101 40% 4 12.08.2028 -
Mason Miley Newcastle United Actif 103 / 111 40% 1 12.08.2028 -
Diego Vargas Universidad de Concepcion Actif 88 / 97 40% 1 12.08.2028 -
Seth Ridgeon Fulham Actif 97 / 118 40% 2 07.08.2028 -
Mauricio Ponce Quilmes Actif 95 / 94 40% 1 07.08.2028 -
Mateo Caballero Defensor Sporting Actif 106 / 107 40% 1 07.08.2028 -
Santino Aguirre Deportivo Riestra Actif 92 / 97 40% 1 06.08.2028 -
Maximiliano Duarte Independiente Actif 99 / 107 40% 1 06.08.2028 -
Seydou Fofana Pacos de Ferreira Actif 107 / 117 40% 4 05.08.2028 -
Francisco Arias Gimnasia y Esgrima Actif 83 / 92 40% 2 05.08.2028 -
Aaron Branca Artigas Actif 86 / 84 40% 2 04.08.2028 -
Mihail Polendakov Sheffield United Actif 110 / 113 40% 1 03.08.2028 -
Lamine Bèye Portimonense Actif 105 / 124 40% 4 02.08.2028 -
Sam Alabi Newcastle United Actif 119 / 123 40% 1 02.08.2028 -
Kiani Inge Groningen Actif 117 / 126 40% 6 01.08.2028 -
Miguel Figueiredo Benfica Actif 132 / 124 40% 9 27.07.2028 -
Eric Klein Real Salt Lake Actif 113 / 108 40% 1 26.07.2028 -
Agustín Desimone San Miguel Actif 90 / 93 40% 1 26.07.2028 -
Kamaldeen Atiemo Wa All Stars Actif 109 / 113 40% 1 25.07.2028 -
Ulises Piedrabuena Vélez Actif 104 / 112 40% 1 25.07.2028 -
Nazareno Roselli Defensa y Justicia Actif 117 / 120 40% 3 23.07.2028 -
Ignacio Ovando Rosario Central Actif 109 / 119 40% 1 22.07.2028 -
Gonzalo Escudero Racing Club Actif 105 / 114 40% 1 22.07.2028 -
Elián Báez Caracas Actif 93 / 89 40% 1 21.07.2028 -
Vasilije Novičić IMT Actif 114 / 120 40% 1 20.07.2028 -
Bruno Rizzi Instituto Actif 95 / 91 40% 1 18.07.2028 -
Valentin Roberge AE Kition Refusé 97 / 109 65% 1 17.07.2028 Refuser
Galo Avendaño Aldosivi Actif 99 / 100 40% 3 15.07.2028 -
Maxim Radchenko Rostov Actif 84 / 95 40% 3 15.07.2028 -
Nejc Brekalo NK Domzale Actif 112 / 105 40% 1 15.07.2028 -
Martín D'Aurizio Huracán Actif 109 / 109 40% 2 13.07.2028 -
Adam Harrison Newcastle United Actif 85 / 96 40% 2 13.07.2028 -
Olivier Leroux Mouscron Actif 94 / 112 40% 4 12.07.2028 -
Mats Egbring Heerenveen Actif 115 / 116 40% 3 12.07.2028 -
Ianis Marin Pandurii Actif 107 / 105 40% 1 10.07.2028 -
Ho Sy Duc Pribram Actif 97 / 90 40% 2 08.07.2028 -
Deimer Longas Nimes Actif 78 / 93 40% 1 08.07.2028 -
Valentín Loza Defensa y Justicia Actif 103 / 113 40% 1 06.07.2028 -
Aymean El Hani Ajax Actif 98 / 105 40% 1 06.07.2028 -
Mouhmadou Mansour Thiam Bra Actif 73 / 83 40% 2 04.07.2028 -
Nicolò Moranduzzo Renate Actif 96 / 103 40% 10 03.07.2028 -
Makar Vysochenko Spartak Moscow Actif 87 / 97 40% 4 03.07.2028 -
Jack Shorrock Port Vale Actif 98 / 102 40% 1 03.07.2028 -
Matai Akinmboni Bournemouth Actif 105 / 115 40% 1 02.07.2028 -
João Capucho Benfica Actif 116 / 114 40% 1 29.06.2028 -
Mehdi Noorafkan Padideh Actif 104 / 104 40% 1 28.06.2028 -
Omar Tharwat Arab Contractors Actif 96 / 99 40% 1 25.06.2028 -
Owen Eames Derby County Actif 109 / 99 40% 1 21.06.2028 -
Alexandr Lubnin Zenit Penza Actif 90 / 88 40% 1 21.06.2028 -
Malachi Molina FC Dallas Actif 91 / 101 40% 1 20.06.2028 -
Samuel Amissah Fulham Actif 116 / 106 40% 1 20.06.2028 -
Noah Markmann Esbjerg Actif 120 / 126 40% 1 17.06.2028 -
Hunor Németh FC Copenhagen Actif 123 / 115 40% 1 14.06.2028 -
Jenson Jones Walsall Actif 92 / 113 40% 3 10.06.2028 -
Thato Sibiya Orlando Pirates Actif 121 / 113 40% 2 10.06.2028 -
Denys Smetana Rukh Actif 102 / 100 40% 3 09.06.2028 -
Isaac Monnier FC Lorient Actif 105 / 99 40% 1 07.06.2028 -
Ignacio Roldán Lanús Actif 93 / 110 40% 1 30.05.2028 -
Thiago Sabella Banfield Actif 107 / 112 40% 2 28.05.2028 -
Augusto Bando Ascoli Actif 115 / 121 40% 2 27.05.2028 -
Woody Williamson Accrington Stanley Refusé 107 / 105 40% 9 26.05.2028 -
Amine Boukamir Charleroi Actif 105 / 105 40% 3 25.05.2028 -
Bernardo Lima Porto Actif 111 / 117 40% 5 24.05.2028 -
Lisandro Musso Central Córdoba SdE Actif 91 / 106 40% 4 22.05.2028 -
Jhusstyn Rentería Atletico Nacional Actif 91 / 99 40% 2 21.05.2028 -
Duran Ferree San Diego Football Club Actif 101 / 115 40% 1 21.05.2028 -
Musa Danjuma Umraniyespor Actif 88 / 110 40% 1 21.05.2028 -
Carlos Hernández Deportivo Riestra Actif 96 / 90 40% 1 19.05.2028 -
Bence Szakos Aris Actif 101 / 103 40% 2 18.05.2028 -
Nour Ashraf ENPPI Actif 80 / 85 40% 1 18.05.2028 -
Tobiáš Pališčák Zlin Actif 92 / 104 40% 1 17.05.2028 -
Agustín Nogueira Barracas Central Actif 105 / 109 40% 5 16.05.2028 -
Lwandiso Radebe Ajax Cape Town Actif 94 / 99 40% 2 16.05.2028 -
Alex Villa González Atlético Tucumán Actif 98 / 98 40% 1 16.05.2028 -
Milad Nekounam Gostaresh Foulad Actif 76 / 95 40% 1 15.05.2028 -
Daniel Fois Südtirol Actif 83 / 88 40% 1 14.05.2028 -
Diego Bolaños Veracruz Actif 84 / 97 40% 1 12.05.2028 -
Facundo Binzugna Boca Juniors Actif 93 / 100 40% 1 12.05.2028 -
Máximo Núñez Los Andes Actif 102 / 107 40% 4 10.05.2028 -
Nicolás Ruiz Tigres Actif 92 / 93 40% 1 10.05.2028 -
Thiago Perruisset Boca Juniors Actif 90 / 102 40% 7 08.05.2028 -
George Hardy Charlton Athletic Actif 73 / 90 40% 1 08.05.2028 -
Fernando Bravo Almería Actif 113 / 110 40% 2 07.05.2028 -
Randall Castillo Universidad de Chile Actif 90 / 93 40% 1 07.05.2028 -
Irwin Zamudio Tijuana Actif 77 / 96 40% 1 05.05.2028 -
Kelian Le Pironnec Mirandés Actif 103 / 99 40% 2 03.05.2028 -
Fabián Correa Barranquilla Actif 92 / 94 40% 1 03.05.2028 -
Duván Córdoba Jaguares Actif 95 / 104 40% 2 01.05.2028 -
Ángel Aguayo Sol de America Actif 95 / 104 40% 1 01.05.2028 -
Juan David Lázaro Patriotas Actif 90 / 103 40% 3 28.04.2028 -
Finley Taylor Blackburn Rovers Actif 69 / 90 40% 1 28.04.2028 -
Isa Aji US Bougouni Actif 84 / 90 40% 2 27.04.2028 -
Ramiro Pueblas Argentinos Juniors Actif 81 / 91 40% 4 26.04.2028 -
Oscar Varney Coventry City Actif 93 / 84 40% 1 26.04.2028 -
Sam Jones Cardiff City Actif 79 / 92 40% 1 26.04.2028 -
Martim Cunha Porto Actif 101 / 112 40% 5 23.04.2028 -
Ayoub Akabou Ceuta Actif 101 / 111 40% 2 23.04.2028 -
Jayden Ngwashi Manchester United Actif 115 / 125 40% 1 23.04.2028 -
Yeifer Herrera Leones Actif 94 / 94 40% 1 23.04.2028 -
Bark Abdramane AS PSI Actif 78 / 80 40% 5 22.04.2028 -
Gino Rizzo Rosario Central Actif 83 / 83 40% 1 19.04.2028 -
Julián Alcar Banfield Actif 93 / 95 40% 5 15.04.2028 -
Toby Bell Chelsea Actif 90 / 95 40% 1 15.04.2028 -
Gianluca Valdiviezo Colón Actif 103 / 107 40% 1 13.04.2028 -
Santiago Suárez Queretaro Actif 68 / 81 40% 1 13.04.2028 -
Nicolás Casa Barranquilla Actif 89 / 90 40% 2 12.04.2028 -
Leon Klanac Bayern Munich Actif 97 / 111 40% 1 09.04.2028 -
Law McCabe Middlesbrough Actif 124 / 126 40% 1 09.04.2028 -
Jakub Adkonis Korona Actif 89 / 109 40% 1 09.04.2028 -
Eze Matthew Enyimba Actif 89 / 84 40% 1 04.04.2028 -
Samuel Galindo Deportes Tolima Actif 79 / 98 40% 1 03.04.2028 -
Yegor Koshkin Pobeda Actif 95 / 90 40% 7 01.04.2028 -
Jorman Mendoza Envigado Actif 81 / 92 40% 2 31.03.2028 -
Jan Bürger Northampton Town Actif 129 / 119 40% 3 29.03.2028 -
Jon Esenga IF Elfsborg Actif 84 / 105 40% 4 29.03.2028 -
Patricio Flores Defensa y Justicia Actif 97 / 95 40% 1 29.03.2028 -
Juan Kuverling Unión de Santa Fe Actif 88 / 90 40% 1 28.03.2028 -
Othniël Raterink Cagliari Actif 110 / 117 40% 1 27.03.2028 -
Juan Álvarez Argentinos Juniors Actif 91 / 92 40% 1 24.03.2028 -
Manuel Pereyra Tigre Actif 98 / 94 40% 1 24.03.2028 -
Patricio Schroeder Gimnasia La Plata Actif 89 / 91 40% 1 22.03.2028 -
Nicolas Sport Recife Actif 102 / 115 40% 4 21.03.2028 -
Denis Grigorjev Arsenal Tula Actif 75 / 93 40% 2 21.03.2028 -
Maximiliano Campos Zamora Actif 101 / 102 40% 1 19.03.2028 -
Alejandro Gutiérrez Mineros de Guayana Actif 86 / 95 40% 1 17.03.2028 -
Gerardo Díaz San Martín SJ Actif 102 / 100 40% 4 15.03.2028 -
Jeremías Robledo Acosta Newell's Old Boys Actif 89 / 94 40% 2 15.03.2028 -
Giannis Christodoulopoulos Olympiacos Actif 92 / 79 40% 2 12.03.2028 -
Thiago Silvero Vélez Actif 132 / 131 40% 1 12.03.2028 -
Tobías Mendoza Estudiantes Actif 90 / 103 40% 1 10.03.2028 -
Ignacio Coscio Huracán Actif 101 / 99 40% 1 10.03.2028 -
Cristian Derbyshire Binga Actif 75 / 74 40% 1 08.03.2028 -
Jorge Sánchez Carabobo Actif 102 / 101 40% 3 04.03.2028 -
Owen Asemota Aston Villa Actif 81 / 109 40% 1 04.03.2028 -
Íker Blanco Deportivo Cali Actif 96 / 100 40% 2 29.02.2028 -
Carlos Nemocón Santa Fe Actif 90 / 99 40% 7 26.02.2028 -
Luis Lines Norwich City Actif 99 / 86 40% 1 23.02.2028 -
Samuel Atehortúa Deportivo Pereira Actif 80 / 93 40% 1 22.02.2028 -
David Fernández Unión de Santa Fe Actif 83 / 96 40% 1 22.02.2028 -
Lorenz Ferdinand Tondela Actif 86 / 98 40% 2 19.02.2028 -
Marcos Suárez Sevilla Actif 82 / 88 40% 1 17.02.2028 -
Danilo Monza Sarmiento Actif 103 / 109 40% 1 13.02.2028 -
Matvey Bardachev Zenit Actif 111 / 104 40% 1 13.02.2028 -
Abubakar Adams Aduana Stars Actif 95 / 98 40% 1 13.02.2028 -
Matías Vilalta Giana Erminio Actif 87 / 100 40% 3 08.02.2028 -
Sabino González Sarmiento Actif 99 / 96 40% 2 08.02.2028 -
Tyler Fletcher Rotherham United Actif 121 / 115 40% 3 08.02.2028 -
Mark Pereverzev Orenburg Actif 68 / 79 40% 1 04.02.2028 -
Ignacio Cardozo Vélez Actif 91 / 98 40% 3 02.02.2028 -
Matías Villa Envigado Actif 85 / 97 40% 1 02.02.2028 -
Zane Albarus Shrewsbury Town Actif 106 / 104 40% 3 31.01.2028 -
Tobias Moi Lillestrom Actif 94 / 109 40% 2 31.01.2028 -
Joaquín Giudice Platense Actif 100 / 108 40% 6 28.01.2028 -
Joaquín Mancuso Vélez Actif 93 / 100 40% 1 27.01.2028 -
Charlie Gray Fleetwood Town Actif 110 / 95 40% 3 25.01.2028 -
Juan Manuel Centurión Independiente Actif 99 / 102 40% 3 25.01.2028 -
Henry Lawal Remo Stars Actif 88 / 97 40% 1 24.01.2028 -
Seb Stacey Crawley Town Actif 94 / 90 40% 2 22.01.2028 -
Enzo Gramajo Vélez Actif 91 / 91 40% 1 18.01.2028 -
Tiziano Delias Sarmiento Actif 83 / 91 40% 13 13.01.2028 -
Roberto Moreno Cruz Azul Actif 79 / 89 40% 1 13.01.2028 -
Josh Nichols Oldham Athletic Actif 115 / 123 40% 2 12.01.2028 -
Sebastian Jensen Brighton Actif 88 / 105 40% 1 05.01.2028 -
Lisandro Tejada San Martín SJ Actif 96 / 97 40% 1 05.01.2028 -
Tobías Pantoja Central Norte Actif 97 / 107 40% 2 04.01.2028 -
Matías Molina Independiente Actif 108 / 112 40% 1 04.01.2028 -
Ulíses López Barracas Central Actif 93 / 97 40% 1 04.01.2028 -
Hosea Michael Remo Stars Actif 100 / 102 40% 3 31.12.2027 -
Hugo Rojas Instituto Actif 98 / 107 40% 1 10.12.2027 -
Theofilos Kakadiaris Asteras Actif 70 / 77 40% 2 05.12.2027 -
Felipe Igón Racing Club Actif 102 / 104 40% 2 02.12.2027 -
Matias Siltanen Malmo FF Actif 131 / 122 40% 3 26.11.2027 -
Mohamed Moussa Koïta Mathare United Actif 87 / 93 40% 1 26.11.2027 -
Gideon Manaseh Ikorodu City Actif 95 / 91 40% 1 22.11.2027 -
Juan Camilo Córdoba Deportivo Pereira Actif 91 / 95 40% 1 22.11.2027 -
Siyabonga Hlatshwayo Bloemfontein Celtic Actif 91 / 89 40% 1 10.11.2027 -
Nikita Dovnar Niva Actif 66 / 76 40% 1 07.11.2027 -
Adrian Skogmar Malmo FF Actif 115 / 120 40% 1 03.11.2027 -
Olivier Mambwa Young Boys Actif 102 / 112 40% 1 03.11.2027 -
Celías Ingenthron Platense Actif 120 / 126 40% 1 01.11.2027 -
True Grant Oldham Athletic Actif 109 / 108 40% 2 19.10.2027 -
Christian Bravo Huachipato Actif 78 / 98 40% 1 18.10.2027 -
Valentín Catalán Argentinos Juniors Actif 87 / 95 40% 1 18.10.2027 -
Matías Zorzoli Newell's Old Boys Actif 87 / 105 40% 1 14.10.2027 -
Damián Constanzo River Plate Actif 90 / 92 40% 1 13.10.2027 -
Matthew Litherland Harrogate Town Actif 117 / 114 40% 1 04.10.2027 -
Ikenna Nkwazema FC Diarra Actif 71 / 78 40% 2 26.09.2027 -
Lucas Wolfert Racing Club Actif 98 / 103 40% 1 23.09.2027 -
Alexei Rojas Fedorushchenko Barrow AFC Actif 112 / 125 40% 2 19.09.2027 -
Kayne Rizvanovich Minnesota United FC Actif 91 / 97 40% 1 14.09.2027 -
Anthony Cletus Bendel Insurance Actif 86 / 88 40% 1 12.09.2027 -
Ethan Gold Crewe Alexandra Actif 94 / 109 40% 2 09.09.2027 -
Jesús Mejía Real Santander Actif 79 / 88 40% 1 07.09.2027 -
Joel Ezra Enyimba Actif 106 / 102 40% 1 30.08.2027 -
Björn Hedlöf Helsingborg Actif 98 / 104 40% 1 25.08.2027 -
José Cavadia Aguilas Doradas Actif 116 / 115 40% 1 25.08.2027 -
Isaías Silva Miramar Misiones Actif 88 / 93 40% 1 21.08.2027 -
Óscar Hinojosa Metropolitanos Actif 72 / 80 40% 1 21.08.2027 -
Matías Canedo Rampla Juniors Actif 82 / 94 40% 1 20.08.2027 -
Vittorio Magni Cesena Actif 105 / 108 40% 2 18.08.2027 -
Chibueze Oputa Rangers International Actif 82 / 88 40% 2 14.08.2027 -
Tommaso Cecotti Carpi Actif 107 / 94 40% 1 14.08.2027 -
Panagiotis Markou Doxa Actif 91 / 109 40% 1 13.08.2027 -
Mpho Khethang FC Diarra Actif 90 / 81 40% 1 12.08.2027 -
Pedro Vian Seewald Dolomiti Bellunesi Actif 83 / 106 40% 1 03.08.2027 -
Andrea Bertoncini Triestina Actif 98 / 100 40% 3 27.07.2027 -
George Hoddle Cambridge United Actif 86 / 84 40% 2 26.07.2027 -
Leandro Martins Benfica Actif 98 / 109 40% 2 20.07.2027 -
Riley Owen Stevenage Actif 107 / 109 40% 2 20.07.2027 -
Wessel Kuhn PSV Actif 115 / 112 40% 1 18.07.2027 -
Rhys Walters Port Vale Actif 106 / 112 40% 3 17.07.2027 -
Konta Ismaily Actif 95 / 94 40% 2 15.07.2027 -
Ahmed Zaki Masr El Makasa Actif 89 / 93 40% 1 13.07.2027 -
Elijah Adebayo Luton Town Actif 135 / 120 40% 1 12.07.2027 -
Carlton Morris Derby County Actif 130 / 131 40% 1 12.07.2027 -
Camillo Tavernelli Arezzo Actif 126 / 118 40% 1 21.06.2027 -
Gonçalo Oliveira Benfica Actif 111 / 125 40% 1 01.06.2027 -
Sascha Britschgi AC Milan Actif 113 / 132 40% 6 27.05.2027 -
Daniel Padilla Zamora Actif 91 / 98 40% 1 24.05.2027 -
Ezra Mayers West Ham United Actif 105 / 121 40% 2 20.05.2027 -
Tiago Freitas Benfica Actif 120 / 118 40% 3 18.05.2027 -
Joseph Namatane FC Metz Actif 83 / 103 40% 2 30.04.2027 -
Halam Loboa Sevilla Actif 127 / 136 40% 1 29.04.2027 -
David Ozoh Derby County Actif 119 / 136 40% 2 21.04.2027 -
Lucas Mbamba Westerlo Actif 99 / 86 40% 1 19.04.2027 -
Bence Dárdai VfL Wolfsburg Actif 128 / 126 40% 1 07.04.2027 -
Kirill Glazunov Zenit Actif 79 / 82 40% 1 27.03.2027 -
Jaygo van Ommeren Utrecht Actif 111 / 116 40% 1 21.03.2027 -
Lucas Agazzi Villarreal Actif 128 / 132 40% 1 18.03.2027 -
Darío Poveda Nea Salamis Actif 110 / 107 40% 2 30.12.2026 -
Nikos Karelis Actif 97 / 105 40% 1 28.12.2026 -
Juan Cejas Ethnikos Achnas Actif 104 / 109 40% 2 27.12.2026 -
Brayan Gil Baltika Actif 115 / 112 40% 2 27.12.2026 -
Mohamed Konaté Akhmat Grozny Actif 114 / 111 40% 2 17.12.2026 -
Prince Ibara Al-Njoom Actif 99 / 104 40% 1 14.12.2026 -
Yeangel Montero Naxxar Lions Actif 91 / 112 40% 1 12.12.2026 -
Ivan Sergeev Dinamo Moscow Actif 117 / 129 40% 1 06.12.2026 -
Sam Nombe Milton Keynes Dons Actif 109 / 119 40% 1 01.12.2026 -
Alexandr Kokorin Actif 125 / 114 40% 1 01.12.2026 -
Jamie Reid Stevenage Actif 114 / 96 40% 1 30.11.2026 -
Arthur Gomes Dinamo Moscow Actif 124 / 124 40% 1 28.11.2026 -
Mamadou Sylla Al-Riyadh Actif 141 / 114 40% 2 25.11.2026 -
Ruslan Apekov Torpedo Moscow Actif 95 / 101 40% 1 24.11.2026 -
Nicolae Milinceanu Doxa Actif 104 / 107 40% 1 22.11.2026 -
Marcelo Torres Gimnasia La Plata Actif 118 / 112 40% 2 19.11.2026 -
Wilfried Kanga Al-Fateh Actif 130 / 110 40% 1 15.11.2026 -
Leandro Antunes Al-Riyadh Actif 115 / 115 40% 1 14.11.2026 -
Luis Solignac Al-Ittihad Actif 95 / 110 40% 1 11.11.2026 -
Amur Kalmykov Spartak Kostroma Actif 122 / 108 40% 1 06.11.2026 -
Simy Al-Orobah Actif 139 / 109 40% 1 06.11.2026 -
Peter Olayinka Al-Wehda Actif 133 / 129 40% 1 05.11.2026 -
Dimitris Diamantakos APOEL Actif 119 / 101 40% 1 03.11.2026 -
Manprit Sarkaria Austria Wien Actif 123 / 104 40% 1 02.11.2026 -
Charalabos Georgiadis Panserraikos Actif 75 / 88 40% 1 17.08.2026 -
Thiago Martínez Defensa y Justicia Actif 83 / 103 40% 1 02.08.2026 -